sensor_id;sensor_type;location;lat;lon;timestamp;P1;durP1;ratioP1;P2;durP2;ratioP2
53151;SDS011;39234;53.158;6.322;2023-02-28T00:00:29;8.90;;;3.25;;
53151;SDS011;39234;53.158;6.322;2023-02-28T00:02:56;11.98;;;3.20;;
53151;SDS011;39234;53.158;6.322;2023-02-28T00:05:23;15.10;;;3.65;;
53151;SDS011;39234;53.158;6.322;2023-02-28T00:07:50;8.07;;;3.05;;
53151;SDS011;39234;53.158;6.322;2023-02-28T00:10:18;8.85;;;3.63;;
53151;SDS011;39234;53.158;6.322;2023-02-28T00:12:52;9.75;;;2.90;;
53151;SDS011;39234;53.158;6.322;2023-02-28T00:15:22;8.27;;;3.20;;
53151;SDS011;39234;53.158;6.322;2023-02-28T00:17:48;8.93;;;3.30;;
53151;SDS011;39234;53.158;6.322;2023-02-28T00:20:14;8.63;;;3.10;;
53151;SDS011;39234;53.158;6.322;2023-02-28T00:22:41;13.95;;;3.58;;
53151;SDS011;39234;53.158;6.322;2023-02-28T00:25:12;15.15;;;3.25;;
53151;SDS011;39234;53.158;6.322;2023-02-28T00:27:39;10.88;;;3.05;;
53151;SDS011;39234;53.158;6.322;2023-02-28T00:30:07;8.50;;;2.95;;
53151;SDS011;39234;53.158;6.322;2023-02-28T00:32:36;15.02;;;3.75;;
53151;SDS011;39234;53.158;6.322;2023-02-28T00:35:02;11.30;;;3.30;;
53151;SDS011;39234;53.158;6.322;2023-02-28T00:37:28;12.85;;;3.40;;
53151;SDS011;39234;53.158;6.322;2023-02-28T00:39:54;8.38;;;2.63;;
53151;SDS011;39234;53.158;6.322;2023-02-28T00:42:20;8.75;;;3.17;;
53151;SDS011;39234;53.158;6.322;2023-02-28T00:44:46;11.88;;;3.75;;
53151;SDS011;39234;53.158;6.322;2023-02-28T00:47:13;13.40;;;3.97;;
53151;SDS011;39234;53.158;6.322;2023-02-28T00:49:39;10.02;;;3.03;;
53151;SDS011;39234;53.158;6.322;2023-02-28T00:52:05;10.77;;;3.85;;
53151;SDS011;39234;53.158;6.322;2023-02-28T00:54:31;10.60;;;3.42;;
53151;SDS011;39234;53.158;6.322;2023-02-28T00:56:58;12.10;;;3.20;;
53151;SDS011;39234;53.158;6.322;2023-02-28T00:59:24;12.07;;;3.35;;
53151;SDS011;39234;53.158;6.322;2023-02-28T01:01:50;13.10;;;2.83;;
53151;SDS011;39234;53.158;6.322;2023-02-28T01:04:16;8.25;;;2.63;;
53151;SDS011;39234;53.158;6.322;2023-02-28T01:06:42;12.13;;;3.25;;
53151;SDS011;39234;53.158;6.322;2023-02-28T01:09:08;9.40;;;2.80;;
53151;SDS011;39234;53.158;6.322;2023-02-28T01:11:34;9.02;;;2.67;;
53151;SDS011;39234;53.158;6.322;2023-02-28T01:14:01;10.60;;;2.85;;
53151;SDS011;39234;53.158;6.322;2023-02-28T01:16:27;8.48;;;3.25;;
53151;SDS011;39234;53.158;6.322;2023-02-28T01:18:53;10.27;;;3.60;;
53151;SDS011;39234;53.158;6.322;2023-02-28T01:21:20;9.98;;;2.60;;
53151;SDS011;39234;53.158;6.322;2023-02-28T01:23:46;8.52;;;2.85;;
53151;SDS011;39234;53.158;6.322;2023-02-28T01:26:14;11.15;;;2.72;;
53151;SDS011;39234;53.158;6.322;2023-02-28T01:28:42;8.25;;;2.67;;
53151;SDS011;39234;53.158;6.322;2023-02-28T01:31:08;14.30;;;3.70;;
53151;SDS011;39234;53.158;6.322;2023-02-28T01:33:35;10.13;;;2.60;;
53151;SDS011;39234;53.158;6.322;2023-02-28T01:36:03;8.98;;;2.92;;
53151;SDS011;39234;53.158;6.322;2023-02-28T01:38:35;13.20;;;2.58;;
53151;SDS011;39234;53.158;6.322;2023-02-28T01:41:01;12.23;;;3.20;;
53151;SDS011;39234;53.158;6.322;2023-02-28T01:43:31;8.07;;;2.50;;
53151;SDS011;39234;53.158;6.322;2023-02-28T01:46:17;9.43;;;2.88;;
53151;SDS011;39234;53.158;6.322;2023-02-28T01:51:38;7.60;;;2.65;;
53151;SDS011;39234;53.158;6.322;2023-02-28T01:54:12;16.13;;;3.40;;
53151;SDS011;39234;53.158;6.322;2023-02-28T01:56:52;11.55;;;3.13;;
53151;SDS011;39234;53.158;6.322;2023-02-28T01:59:23;10.07;;;3.10;;
53151;SDS011;39234;53.158;6.322;2023-02-28T02:02:10;8.55;;;3.20;;
53151;SDS011;39234;53.158;6.322;2023-02-28T02:04:40;13.68;;;3.50;;
53151;SDS011;39234;53.158;6.322;2023-02-28T02:07:11;14.60;;;2.90;;
53151;SDS011;39234;53.158;6.322;2023-02-28T02:09:38;10.55;;;3.10;;
53151;SDS011;39234;53.158;6.322;2023-02-28T02:12:08;6.28;;;2.53;;
53151;SDS011;39234;53.158;6.322;2023-02-28T02:17:26;10.40;;;3.00;;
53151;SDS011;39234;53.158;6.322;2023-02-28T02:23:27;10.10;;;3.22;;
53151;SDS011;39234;53.158;6.322;2023-02-28T02:34:56;8.50;;;2.90;;
53151;SDS011;39234;53.158;6.322;2023-02-28T02:37:21;9.90;;;3.50;;
53151;SDS011;39234;53.158;6.322;2023-02-28T02:39:53;8.57;;;2.97;;
53151;SDS011;39234;53.158;6.322;2023-02-28T02:45:36;11.23;;;3.25;;
53151;SDS011;39234;53.158;6.322;2023-02-28T02:48:08;14.23;;;3.75;;
53151;SDS011;39234;53.158;6.322;2023-02-28T02:50:45;11.05;;;2.80;;
53151;SDS011;39234;53.158;6.322;2023-02-28T02:53:15;16.83;;;4.03;;
53151;SDS011;39234;53.158;6.322;2023-02-28T02:55:44;13.18;;;3.80;;
53151;SDS011;39234;53.158;6.322;2023-02-28T02:58:18;12.77;;;3.13;;
53151;SDS011;39234;53.158;6.322;2023-02-28T03:00:50;13.20;;;3.30;;
53151;SDS011;39234;53.158;6.322;2023-02-28T03:03:19;9.40;;;2.97;;
53151;SDS011;39234;53.158;6.322;2023-02-28T03:05:54;12.85;;;4.43;;
53151;SDS011;39234;53.158;6.322;2023-02-28T03:08:22;14.45;;;4.07;;
53151;SDS011;39234;53.158;6.322;2023-02-28T03:10:48;10.25;;;3.58;;
53151;SDS011;39234;53.158;6.322;2023-02-28T03:26:29;12.93;;;3.47;;
53151;SDS011;39234;53.158;6.322;2023-02-28T03:29:02;10.75;;;3.88;;
53151;SDS011;39234;53.158;6.322;2023-02-28T03:31:37;13.85;;;3.60;;
53151;SDS011;39234;53.158;6.322;2023-02-28T03:34:08;7.25;;;3.22;;
53151;SDS011;39234;53.158;6.322;2023-02-28T03:36:41;12.40;;;3.72;;
53151;SDS011;39234;53.158;6.322;2023-02-28T03:39:55;11.75;;;3.97;;
53151;SDS011;39234;53.158;6.322;2023-02-28T03:42:27;9.55;;;3.22;;
53151;SDS011;39234;53.158;6.322;2023-02-28T03:45:00;12.35;;;4.88;;
53151;SDS011;39234;53.158;6.322;2023-02-28T03:47:33;14.32;;;3.67;;
53151;SDS011;39234;53.158;6.322;2023-02-28T03:50:08;12.82;;;3.75;;
53151;SDS011;39234;53.158;6.322;2023-02-28T03:52:52;12.43;;;4.63;;
53151;SDS011;39234;53.158;6.322;2023-02-28T03:55:31;10.13;;;3.70;;
53151;SDS011;39234;53.158;6.322;2023-02-28T03:58:18;11.15;;;3.97;;
53151;SDS011;39234;53.158;6.322;2023-02-28T04:00:55;15.45;;;4.78;;
53151;SDS011;39234;53.158;6.322;2023-02-28T04:03:34;12.27;;;4.85;;
53151;SDS011;39234;53.158;6.322;2023-02-28T04:06:00;12.25;;;5.57;;
53151;SDS011;39234;53.158;6.322;2023-02-28T04:08:26;16.35;;;8.13;;
53151;SDS011;39234;53.158;6.322;2023-02-28T04:11:12;16.73;;;8.68;;
53151;SDS011;39234;53.158;6.322;2023-02-28T04:13:57;15.73;;;8.73;;
53151;SDS011;39234;53.158;6.322;2023-02-28T04:16:23;14.77;;;9.52;;
53151;SDS011;39234;53.158;6.322;2023-02-28T04:18:49;20.65;;;10.65;;
53151;SDS011;39234;53.158;6.322;2023-02-28T04:21:15;20.58;;;9.60;;
53151;SDS011;39234;53.158;6.322;2023-02-28T04:23:45;15.32;;;8.45;;
53151;SDS011;39234;53.158;6.322;2023-02-28T04:26:11;14.23;;;8.63;;
53151;SDS011;39234;53.158;6.322;2023-02-28T04:28:38;18.15;;;10.40;;
53151;SDS011;39234;53.158;6.322;2023-02-28T04:31:04;13.07;;;8.00;;
53151;SDS011;39234;53.158;6.322;2023-02-28T04:33:31;12.88;;;7.47;;
53151;SDS011;39234;53.158;6.322;2023-02-28T04:36:01;11.82;;;7.93;;
53151;SDS011;39234;53.158;6.322;2023-02-28T04:38:28;11.68;;;7.05;;
53151;SDS011;39234;53.158;6.322;2023-02-28T04:40:58;15.38;;;8.15;;
53151;SDS011;39234;53.158;6.322;2023-02-28T04:43:28;13.65;;;7.78;;
53151;SDS011;39234;53.158;6.322;2023-02-28T04:45:55;13.73;;;8.13;;
53151;SDS011;39234;53.158;6.322;2023-02-28T04:48:22;13.32;;;8.85;;
53151;SDS011;39234;53.158;6.322;2023-02-28T04:50:49;11.80;;;7.75;;
53151;SDS011;39234;53.158;6.322;2023-02-28T04:53:16;15.95;;;8.50;;
53151;SDS011;39234;53.158;6.322;2023-02-28T04:55:42;14.00;;;7.78;;
53151;SDS011;39234;53.158;6.322;2023-02-28T04:58:08;11.93;;;7.25;;
53151;SDS011;39234;53.158;6.322;2023-02-28T05:00:34;12.30;;;7.32;;
53151;SDS011;39234;53.158;6.322;2023-02-28T05:03:00;11.40;;;6.72;;
53151;SDS011;39234;53.158;6.322;2023-02-28T05:05:26;12.10;;;7.40;;
53151;SDS011;39234;53.158;6.322;2023-02-28T05:07:52;13.73;;;7.65;;
53151;SDS011;39234;53.158;6.322;2023-02-28T05:10:20;14.50;;;7.18;;
53151;SDS011;39234;53.158;6.322;2023-02-28T05:12:46;11.82;;;6.90;;
53151;SDS011;39234;53.158;6.322;2023-02-28T05:15:13;15.13;;;7.60;;
53151;SDS011;39234;53.158;6.322;2023-02-28T05:17:40;11.55;;;6.88;;
53151;SDS011;39234;53.158;6.322;2023-02-28T05:20:06;18.00;;;7.80;;
53151;SDS011;39234;53.158;6.322;2023-02-28T05:22:40;14.15;;;7.25;;
53151;SDS011;39234;53.158;6.322;2023-02-28T05:25:08;12.23;;;7.30;;
53151;SDS011;39234;53.158;6.322;2023-02-28T05:27:37;12.75;;;7.43;;
53151;SDS011;39234;53.158;6.322;2023-02-28T05:30:03;10.60;;;7.18;;
53151;SDS011;39234;53.158;6.322;2023-02-28T05:32:31;13.60;;;7.82;;
53151;SDS011;39234;53.158;6.322;2023-02-28T05:34:57;13.65;;;8.70;;
53151;SDS011;39234;53.158;6.322;2023-02-28T05:37:23;14.50;;;8.45;;
53151;SDS011;39234;53.158;6.322;2023-02-28T05:39:49;15.48;;;9.00;;
53151;SDS011;39234;53.158;6.322;2023-02-28T05:42:15;13.95;;;9.05;;
53151;SDS011;39234;53.158;6.322;2023-02-28T05:44:41;17.15;;;9.70;;
53151;SDS011;39234;53.158;6.322;2023-02-28T05:47:07;16.88;;;10.25;;
53151;SDS011;39234;53.158;6.322;2023-02-28T05:49:33;18.52;;;10.45;;
53151;SDS011;39234;53.158;6.322;2023-02-28T05:51:59;17.98;;;9.52;;
53151;SDS011;39234;53.158;6.322;2023-02-28T05:54:25;21.23;;;10.77;;
53151;SDS011;39234;53.158;6.322;2023-02-28T05:56:51;21.13;;;11.07;;
53151;SDS011;39234;53.158;6.322;2023-02-28T05:59:17;18.40;;;10.90;;
53151;SDS011;39234;53.158;6.322;2023-02-28T06:01:44;18.90;;;9.98;;
53151;SDS011;39234;53.158;6.322;2023-02-28T06:04:14;19.00;;;10.02;;
53151;SDS011;39234;53.158;6.322;2023-02-28T06:06:46;15.52;;;9.85;;
53151;SDS011;39234;53.158;6.322;2023-02-28T06:09:12;15.57;;;9.98;;
53151;SDS011;39234;53.158;6.322;2023-02-28T06:11:39;16.77;;;9.07;;
53151;SDS011;39234;53.158;6.322;2023-02-28T06:14:05;14.57;;;9.93;;
53151;SDS011;39234;53.158;6.322;2023-02-28T06:16:32;15.18;;;9.35;;
53151;SDS011;39234;53.158;6.322;2023-02-28T06:18:59;15.80;;;10.07;;
53151;SDS011;39234;53.158;6.322;2023-02-28T06:21:26;13.90;;;8.90;;
53151;SDS011;39234;53.158;6.322;2023-02-28T06:23:53;16.40;;;8.70;;
53151;SDS011;39234;53.158;6.322;2023-02-28T06:26:19;13.82;;;9.60;;
53151;SDS011;39234;53.158;6.322;2023-02-28T06:28:46;13.77;;;9.40;;
53151;SDS011;39234;53.158;6.322;2023-02-28T06:31:12;17.25;;;10.32;;
53151;SDS011;39234;53.158;6.322;2023-02-28T06:33:40;16.40;;;9.98;;
53151;SDS011;39234;53.158;6.322;2023-02-28T06:36:08;20.15;;;11.50;;
53151;SDS011;39234;53.158;6.322;2023-02-28T06:38:34;20.77;;;12.15;;
53151;SDS011;39234;53.158;6.322;2023-02-28T06:41:01;20.33;;;11.75;;
53151;SDS011;39234;53.158;6.322;2023-02-28T06:43:28;16.90;;;9.88;;
53151;SDS011;39234;53.158;6.322;2023-02-28T06:45:56;19.52;;;11.32;;
53151;SDS011;39234;53.158;6.322;2023-02-28T06:48:23;16.90;;;10.70;;
53151;SDS011;39234;53.158;6.322;2023-02-28T06:50:49;20.73;;;11.73;;
53151;SDS011;39234;53.158;6.322;2023-02-28T06:53:15;22.73;;;12.35;;
53151;SDS011;39234;53.158;6.322;2023-02-28T06:55:41;22.20;;;12.27;;
53151;SDS011;39234;53.158;6.322;2023-02-28T06:58:07;20.50;;;12.60;;
53151;SDS011;39234;53.158;6.322;2023-02-28T07:00:41;19.60;;;11.98;;
53151;SDS011;39234;53.158;6.322;2023-02-28T07:03:08;19.65;;;12.63;;
53151;SDS011;39234;53.158;6.322;2023-02-28T07:05:38;20.67;;;13.13;;
53151;SDS011;39234;53.158;6.322;2023-02-28T07:08:04;22.02;;;12.90;;
53151;SDS011;39234;53.158;6.322;2023-02-28T07:10:31;21.15;;;13.13;;
53151;SDS011;39234;53.158;6.322;2023-02-28T07:13:03;25.20;;;13.95;;
53151;SDS011;39234;53.158;6.322;2023-02-28T07:15:30;25.13;;;14.23;;
53151;SDS011;39234;53.158;6.322;2023-02-28T07:17:56;26.20;;;13.25;;
53151;SDS011;39234;53.158;6.322;2023-02-28T07:20:22;24.20;;;14.48;;
53151;SDS011;39234;53.158;6.322;2023-02-28T07:22:49;23.13;;;13.70;;
53151;SDS011;39234;53.158;6.322;2023-02-28T07:27:50;23.30;;;13.57;;
53151;SDS011;39234;53.158;6.322;2023-02-28T07:30:17;20.77;;;13.15;;
53151;SDS011;39234;53.158;6.322;2023-02-28T07:32:43;20.35;;;12.85;;
53151;SDS011;39234;53.158;6.322;2023-02-28T07:35:09;20.50;;;13.50;;
53151;SDS011;39234;53.158;6.322;2023-02-28T07:37:35;22.33;;;14.13;;
53151;SDS011;39234;53.158;6.322;2023-02-28T07:40:04;21.42;;;12.95;;
53151;SDS011;39234;53.158;6.322;2023-02-28T07:42:33;25.20;;;14.13;;
53151;SDS011;39234;53.158;6.322;2023-02-28T07:45:00;25.60;;;14.93;;
53151;SDS011;39234;53.158;6.322;2023-02-28T07:47:26;23.70;;;14.63;;
53151;SDS011;39234;53.158;6.322;2023-02-28T07:49:55;21.70;;;13.82;;
53151;SDS011;39234;53.158;6.322;2023-02-28T07:52:21;23.90;;;14.13;;
53151;SDS011;39234;53.158;6.322;2023-02-28T07:54:48;21.42;;;13.13;;
53151;SDS011;39234;53.158;6.322;2023-02-28T07:57:15;27.30;;;14.98;;
53151;SDS011;39234;53.158;6.322;2023-02-28T07:59:41;27.98;;;14.40;;
53151;SDS011;39234;53.158;6.322;2023-02-28T08:02:10;23.58;;;14.18;;
53151;SDS011;39234;53.158;6.322;2023-02-28T08:04:41;22.27;;;14.43;;
53151;SDS011;39234;53.158;6.322;2023-02-28T08:07:07;22.05;;;14.15;;
53151;SDS011;39234;53.158;6.322;2023-02-28T08:09:35;19.67;;;13.38;;
53151;SDS011;39234;53.158;6.322;2023-02-28T08:12:01;21.70;;;13.38;;
53151;SDS011;39234;53.158;6.322;2023-02-28T08:14:27;20.45;;;13.50;;
53151;SDS011;39234;53.158;6.322;2023-02-28T08:16:53;22.02;;;14.13;;
53151;SDS011;39234;53.158;6.322;2023-02-28T08:19:19;25.17;;;15.48;;
53151;SDS011;39234;53.158;6.322;2023-02-28T08:21:45;29.90;;;20.88;;
53151;SDS011;39234;53.158;6.322;2023-02-28T08:24:11;22.35;;;15.55;;
53151;SDS011;39234;53.158;6.322;2023-02-28T08:26:37;21.10;;;14.23;;
53151;SDS011;39234;53.158;6.322;2023-02-28T08:29:04;26.88;;;15.23;;
53151;SDS011;39234;53.158;6.322;2023-02-28T08:31:30;20.75;;;13.95;;
53151;SDS011;39234;53.158;6.322;2023-02-28T08:33:56;19.95;;;14.15;;
53151;SDS011;39234;53.158;6.322;2023-02-28T08:36:24;20.77;;;13.57;;
53151;SDS011;39234;53.158;6.322;2023-02-28T08:38:50;32.45;;;19.13;;
53151;SDS011;39234;53.158;6.322;2023-02-28T08:41:16;21.90;;;13.32;;
53151;SDS011;39234;53.158;6.322;2023-02-28T08:43:42;20.67;;;13.15;;
53151;SDS011;39234;53.158;6.322;2023-02-28T08:46:11;17.73;;;11.98;;
53151;SDS011;39234;53.158;6.322;2023-02-28T08:48:39;18.55;;;12.52;;
53151;SDS011;39234;53.158;6.322;2023-02-28T08:51:06;18.92;;;11.73;;
53151;SDS011;39234;53.158;6.322;2023-02-28T08:53:37;18.48;;;11.82;;
53151;SDS011;39234;53.158;6.322;2023-02-28T08:56:08;19.92;;;12.45;;
53151;SDS011;39234;53.158;6.322;2023-02-28T08:58:35;15.82;;;11.50;;
53151;SDS011;39234;53.158;6.322;2023-02-28T09:01:15;17.42;;;11.18;;
53151;SDS011;39234;53.158;6.322;2023-02-28T09:03:41;16.20;;;11.18;;
53151;SDS011;39234;53.158;6.322;2023-02-28T09:06:08;17.83;;;12.50;;
53151;SDS011;39234;53.158;6.322;2023-02-28T09:08:35;17.98;;;12.27;;
53151;SDS011;39234;53.158;6.322;2023-02-28T09:11:01;14.70;;;10.45;;
53151;SDS011;39234;53.158;6.322;2023-02-28T09:13:28;15.18;;;11.60;;
53151;SDS011;39234;53.158;6.322;2023-02-28T09:15:54;15.60;;;10.65;;
53151;SDS011;39234;53.158;6.322;2023-02-28T09:18:23;18.63;;;11.48;;
53151;SDS011;39234;53.158;6.322;2023-02-28T09:20:49;17.38;;;10.45;;
53151;SDS011;39234;53.158;6.322;2023-02-28T09:23:15;13.75;;;9.60;;
53151;SDS011;39234;53.158;6.322;2023-02-28T09:25:48;13.32;;;9.95;;
53151;SDS011;39234;53.158;6.322;2023-02-28T09:28:16;15.77;;;8.85;;
53151;SDS011;39234;53.158;6.322;2023-02-28T09:30:46;14.43;;;8.52;;
53151;SDS011;39234;53.158;6.322;2023-02-28T09:33:13;12.63;;;8.77;;
53151;SDS011;39234;53.158;6.322;2023-02-28T09:35:39;14.57;;;7.90;;
53151;SDS011;39234;53.158;6.322;2023-02-28T09:38:05;12.77;;;8.90;;
53151;SDS011;39234;53.158;6.322;2023-02-28T09:40:34;14.00;;;8.95;;
53151;SDS011;39234;53.158;6.322;2023-02-28T09:43:02;14.27;;;10.07;;
53151;SDS011;39234;53.158;6.322;2023-02-28T09:47:54;11.55;;;8.68;;
53151;SDS011;39234;53.158;6.322;2023-02-28T09:53:28;10.38;;;6.82;;
53151;SDS011;39234;53.158;6.322;2023-02-28T09:56:15;11.15;;;8.07;;
53151;SDS011;39234;53.158;6.322;2023-02-28T09:59:02;13.50;;;7.60;;
53151;SDS011;39234;53.158;6.322;2023-02-28T10:07:01;11.95;;;7.95;;
53151;SDS011;39234;53.158;6.322;2023-02-28T10:09:33;11.70;;;7.72;;
53151;SDS011;39234;53.158;6.322;2023-02-28T10:12:04;10.90;;;6.90;;
53151;SDS011;39234;53.158;6.322;2023-02-28T10:14:32;10.10;;;6.63;;
53151;SDS011;39234;53.158;6.322;2023-02-28T10:17:01;11.50;;;6.25;;
53151;SDS011;39234;53.158;6.322;2023-02-28T10:19:47;12.43;;;6.57;;
53151;SDS011;39234;53.158;6.322;2023-02-28T10:25:17;12.10;;;6.38;;
53151;SDS011;39234;53.158;6.322;2023-02-28T10:27:45;8.80;;;6.43;;
53151;SDS011;39234;53.158;6.322;2023-02-28T10:30:11;8.80;;;5.82;;
53151;SDS011;39234;53.158;6.322;2023-02-28T10:32:42;11.43;;;7.07;;
53151;SDS011;39234;53.158;6.322;2023-02-28T10:35:16;8.82;;;5.75;;
53151;SDS011;39234;53.158;6.322;2023-02-28T10:37:45;11.05;;;6.45;;
53151;SDS011;39234;53.158;6.322;2023-02-28T10:42:54;10.75;;;6.15;;
53151;SDS011;39234;53.158;6.322;2023-02-28T10:45:34;9.93;;;5.20;;
53151;SDS011;39234;53.158;6.322;2023-02-28T10:48:05;7.43;;;4.82;;
53151;SDS011;39234;53.158;6.322;2023-02-28T10:50:52;8.05;;;4.85;;
53151;SDS011;39234;53.158;6.322;2023-02-28T10:53:24;9.75;;;5.22;;
53151;SDS011;39234;53.158;6.322;2023-02-28T11:01:17;6.57;;;3.60;;
53151;SDS011;39234;53.158;6.322;2023-02-28T11:03:43;8.48;;;4.60;;
53151;SDS011;39234;53.158;6.322;2023-02-28T11:06:14;7.00;;;4.32;;
53151;SDS011;39234;53.158;6.322;2023-02-28T11:08:55;9.27;;;3.67;;
53151;SDS011;39234;53.158;6.322;2023-02-28T11:11:24;7.07;;;3.85;;
53151;SDS011;39234;53.158;6.322;2023-02-28T11:13:56;8.48;;;3.85;;
53151;SDS011;39234;53.158;6.322;2023-02-28T11:16:31;7.07;;;3.55;;
53151;SDS011;39234;53.158;6.322;2023-02-28T11:19:00;6.20;;;3.75;;
53151;SDS011;39234;53.158;6.322;2023-02-28T11:21:27;7.60;;;3.88;;
53151;SDS011;39234;53.158;6.322;2023-02-28T11:26:48;7.25;;;5.25;;
53151;SDS011;39234;53.158;6.322;2023-02-28T11:29:22;9.57;;;3.88;;
53151;SDS011;39234;53.158;6.322;2023-02-28T11:32:30;7.38;;;4.55;;
53151;SDS011;39234;53.158;6.322;2023-02-28T11:34:39;8.85;;;4.22;;
53151;SDS011;39234;53.158;6.322;2023-02-28T11:37:09;8.38;;;4.55;;
53151;SDS011;39234;53.158;6.322;2023-02-28T11:39:43;7.15;;;4.20;;
53151;SDS011;39234;53.158;6.322;2023-02-28T11:42:17;9.45;;;4.40;;
53151;SDS011;39234;53.158;6.322;2023-02-28T11:56:43;8.20;;;4.10;;
53151;SDS011;39234;53.158;6.322;2023-02-28T12:10:39;4.72;;;2.60;;
53151;SDS011;39234;53.158;6.322;2023-02-28T12:13:35;8.98;;;3.13;;
53151;SDS011;39234;53.158;6.322;2023-02-28T12:19:13;5.70;;;3.10;;
53151;SDS011;39234;53.158;6.322;2023-02-28T12:24:39;6.28;;;3.05;;
53151;SDS011;39234;53.158;6.322;2023-02-28T12:27:12;6.35;;;2.80;;
53151;SDS011;39234;53.158;6.322;2023-02-28T12:29:47;7.47;;;3.20;;
53151;SDS011;39234;53.158;6.322;2023-02-28T12:32:26;6.93;;;3.28;;
53151;SDS011;39234;53.158;6.322;2023-02-28T12:35:21;6.53;;;3.08;;
53151;SDS011;39234;53.158;6.322;2023-02-28T12:40:21;4.72;;;2.55;;
53151;SDS011;39234;53.158;6.322;2023-02-28T12:42:51;8.15;;;3.40;;
53151;SDS011;39234;53.158;6.322;2023-02-28T12:45:23;7.45;;;3.30;;
53151;SDS011;39234;53.158;6.322;2023-02-28T12:48:04;6.32;;;3.10;;
53151;SDS011;39234;53.158;6.322;2023-02-28T12:50:33;8.40;;;3.10;;
53151;SDS011;39234;53.158;6.322;2023-02-28T12:55:43;5.63;;;2.80;;
53151;SDS011;39234;53.158;6.322;2023-02-28T12:58:36;5.43;;;2.65;;
53151;SDS011;39234;53.158;6.322;2023-02-28T13:06:53;6.10;;;2.90;;
53151;SDS011;39234;53.158;6.322;2023-02-28T13:09:23;6.03;;;2.92;;
53151;SDS011;39234;53.158;6.322;2023-02-28T13:11:49;5.15;;;2.90;;
53151;SDS011;39234;53.158;6.322;2023-02-28T13:19:37;6.88;;;2.92;;
53151;SDS011;39234;53.158;6.322;2023-02-28T13:22:16;5.95;;;3.13;;
53151;SDS011;39234;53.158;6.322;2023-02-28T13:24:51;6.35;;;3.20;;
53151;SDS011;39234;53.158;6.322;2023-02-28T13:27:22;6.20;;;3.28;;
53151;SDS011;39234;53.158;6.322;2023-02-28T13:29:56;5.97;;;3.00;;
53151;SDS011;39234;53.158;6.322;2023-02-28T13:39:55;6.43;;;2.93;;
53151;SDS011;39234;53.158;6.322;2023-02-28T14:01:23;7.43;;;3.60;;
53151;SDS011;39234;53.158;6.322;2023-02-28T14:06:39;6.35;;;3.60;;
53151;SDS011;39234;53.158;6.322;2023-02-28T14:11:54;7.15;;;3.45;;
53151;SDS011;39234;53.158;6.322;2023-02-28T14:17:05;8.88;;;4.75;;
53151;SDS011;39234;53.158;6.322;2023-02-28T14:19:34;8.05;;;3.58;;
53151;SDS011;39234;53.158;6.322;2023-02-28T14:32:35;7.55;;;3.30;;
53151;SDS011;39234;53.158;6.322;2023-02-28T14:35:18;9.38;;;3.58;;
53151;SDS011;39234;53.158;6.322;2023-02-28T14:37:54;8.02;;;4.00;;
53151;SDS011;39234;53.158;6.322;2023-02-28T14:40:38;5.85;;;3.88;;
53151;SDS011;39234;53.158;6.322;2023-02-28T14:43:06;6.07;;;3.67;;
53151;SDS011;39234;53.158;6.322;2023-02-28T14:45:49;7.15;;;4.20;;
53151;SDS011;39234;53.158;6.322;2023-02-28T14:48:26;8.82;;;4.05;;
53151;SDS011;39234;53.158;6.322;2023-02-28T14:50:53;7.10;;;3.83;;
53151;SDS011;39234;53.158;6.322;2023-02-28T14:53:22;10.82;;;4.20;;
53151;SDS011;39234;53.158;6.322;2023-02-28T14:55:51;9.07;;;4.43;;
53151;SDS011;39234;53.158;6.322;2023-02-28T14:58:25;7.63;;;4.57;;
53151;SDS011;39234;53.158;6.322;2023-02-28T15:00:56;9.88;;;4.43;;
53151;SDS011;39234;53.158;6.322;2023-02-28T15:03:27;15.25;;;5.57;;
53151;SDS011;39234;53.158;6.322;2023-02-28T15:05:58;8.07;;;4.70;;
53151;SDS011;39234;53.158;6.322;2023-02-28T15:08:29;8.38;;;4.07;;
53151;SDS011;39234;53.158;6.322;2023-02-28T15:13:40;8.23;;;4.65;;
53151;SDS011;39234;53.158;6.322;2023-02-28T15:21:26;8.50;;;4.43;;
53151;SDS011;39234;53.158;6.322;2023-02-28T15:24:03;7.25;;;4.35;;
53151;SDS011;39234;53.158;6.322;2023-02-28T15:26:31;12.20;;;5.18;;
53151;SDS011;39234;53.158;6.322;2023-02-28T15:29:00;9.80;;;4.78;;
53151;SDS011;39234;53.158;6.322;2023-02-28T15:31:31;9.40;;;4.38;;
53151;SDS011;39234;53.158;6.322;2023-02-28T15:34:03;6.95;;;4.75;;
53151;SDS011;39234;53.158;6.322;2023-02-28T15:36:32;8.00;;;4.40;;
53151;SDS011;39234;53.158;6.322;2023-02-28T15:39:03;9.70;;;5.10;;
53151;SDS011;39234;53.158;6.322;2023-02-28T15:41:50;10.20;;;4.80;;
53151;SDS011;39234;53.158;6.322;2023-02-28T15:49:29;11.38;;;5.38;;
53151;SDS011;39234;53.158;6.322;2023-02-28T15:52:02;12.95;;;5.60;;
53151;SDS011;39234;53.158;6.322;2023-02-28T15:54:36;12.15;;;5.18;;
53151;SDS011;39234;53.158;6.322;2023-02-28T15:57:06;10.60;;;5.68;;
53151;SDS011;39234;53.158;6.322;2023-02-28T15:59:35;9.10;;;5.00;;
53151;SDS011;39234;53.158;6.322;2023-02-28T16:02:15;11.82;;;5.97;;
53151;SDS011;39234;53.158;6.322;2023-02-28T16:04:59;9.77;;;5.85;;
53151;SDS011;39234;53.158;6.322;2023-02-28T16:07:27;10.43;;;6.30;;
53151;SDS011;39234;53.158;6.322;2023-02-28T16:09:53;10.07;;;5.88;;
53151;SDS011;39234;53.158;6.322;2023-02-28T16:12:20;9.63;;;5.78;;
53151;SDS011;39234;53.158;6.322;2023-02-28T16:14:50;11.95;;;6.18;;
53151;SDS011;39234;53.158;6.322;2023-02-28T16:17:21;12.10;;;6.80;;
53151;SDS011;39234;53.158;6.322;2023-02-28T16:19:52;9.05;;;5.95;;
53151;SDS011;39234;53.158;6.322;2023-02-28T16:22:18;8.85;;;5.70;;
53151;SDS011;39234;53.158;6.322;2023-02-28T16:24:44;10.80;;;7.35;;
53151;SDS011;39234;53.158;6.322;2023-02-28T16:27:31;11.40;;;6.93;;
53151;SDS011;39234;53.158;6.322;2023-02-28T16:30:02;11.77;;;6.82;;
53151;SDS011;39234;53.158;6.322;2023-02-28T16:32:29;10.85;;;7.07;;
53151;SDS011;39234;53.158;6.322;2023-02-28T16:34:57;12.27;;;7.10;;
53151;SDS011;39234;53.158;6.322;2023-02-28T16:37:23;11.10;;;7.85;;
53151;SDS011;39234;53.158;6.322;2023-02-28T16:39:49;10.45;;;6.85;;
53151;SDS011;39234;53.158;6.322;2023-02-28T16:42:19;12.82;;;6.47;;
53151;SDS011;39234;53.158;6.322;2023-02-28T16:44:48;13.52;;;7.22;;
53151;SDS011;39234;53.158;6.322;2023-02-28T16:47:14;11.60;;;7.22;;
53151;SDS011;39234;53.158;6.322;2023-02-28T16:49:40;12.18;;;7.35;;
53151;SDS011;39234;53.158;6.322;2023-02-28T16:52:08;16.05;;;7.80;;
53151;SDS011;39234;53.158;6.322;2023-02-28T16:54:36;11.13;;;7.07;;
53151;SDS011;39234;53.158;6.322;2023-02-28T16:57:03;13.73;;;8.70;;
53151;SDS011;39234;53.158;6.322;2023-02-28T16:59:29;11.15;;;8.40;;
53151;SDS011;39234;53.158;6.322;2023-02-28T17:01:55;14.27;;;8.20;;
53151;SDS011;39234;53.158;6.322;2023-02-28T17:04:25;13.43;;;8.02;;
53151;SDS011;39234;53.158;6.322;2023-02-28T17:06:51;11.48;;;7.80;;
53151;SDS011;39234;53.158;6.322;2023-02-28T17:09:18;18.00;;;12.50;;
53151;SDS011;39234;53.158;6.322;2023-02-28T17:11:46;25.50;;;16.27;;
53151;SDS011;39234;53.158;6.322;2023-02-28T17:14:12;16.88;;;10.23;;
53151;SDS011;39234;53.158;6.322;2023-02-28T17:16:38;11.07;;;7.80;;
53151;SDS011;39234;53.158;6.322;2023-02-28T17:19:05;12.27;;;7.43;;
53151;SDS011;39234;53.158;6.322;2023-02-28T17:21:36;10.98;;;6.82;;
53151;SDS011;39234;53.158;6.322;2023-02-28T17:24:02;11.27;;;7.93;;
53151;SDS011;39234;53.158;6.322;2023-02-28T17:26:28;13.43;;;8.48;;
53151;SDS011;39234;53.158;6.322;2023-02-28T17:28:55;17.02;;;11.20;;
53151;SDS011;39234;53.158;6.322;2023-02-28T17:31:25;18.45;;;10.27;;
53151;SDS011;39234;53.158;6.322;2023-02-28T17:33:52;12.68;;;8.20;;
53151;SDS011;39234;53.158;6.322;2023-02-28T17:36:23;16.48;;;9.95;;